logo dgac
Miércoles 22 de Mayo del 2019
Buscar por aerodromo o helipuerto
Ingrese nombre de aeródromo, localidad o designador OACI:
METAR del 22-05-2019 a las 10:00 UTC
METAR SCAR 221000Z 00000KT 9999 OVC026 17/12 Q1015
Visibilidad: 10 km o más
Nubes: Cubierto a 2600 pies sobre el nivel del aeródromo
Temperatura: 17 °C
Rocío: 12 °C
Humedad_relativa: 72%
Presión: 1015 hPa
METAR del 22-05-2019 a las 09:00 UTC
METAR SCAR 220900Z 00000KT 6000 OVC026 17/13 Q1014
Visibilidad: 6000 metros
Nubes: Cubierto a 2600 pies sobre el nivel del aeródromo
Temperatura: 17 °C
Rocío: 13 °C
Humedad_relativa: 77%
Presión: 1014 hPa
METAR del 22-05-2019 a las 08:00 UTC
METAR SCAR 220800Z VRB01KT 5000 HZ OVC026 17/13 Q1014
Viento: dirección variable, velocidad 1 nudos
Visibilidad: 5000 metros
Bruma
Nubes: Cubierto a 2600 pies sobre el nivel del aeródromo
Temperatura: 17 °C
Rocío: 13 °C
Humedad_relativa: 77%
Presión: 1014 hPa
METAR del 22-05-2019 a las 07:00 UTC
METAR SCAR 220700Z VRB01KT 8000 OVC026 17/13 Q1015
Viento: dirección variable, velocidad 1 nudos
Visibilidad: 8000 metros
Nubes: Cubierto a 2600 pies sobre el nivel del aeródromo
Temperatura: 17 °C
Rocío: 13 °C
Humedad_relativa: 77%
Presión: 1015 hPa
METAR del 22-05-2019 a las 06:00 UTC
METAR SCAR 220600Z 14004KT 9999 OVC026 17/12 Q1015
Viento: dirección 140 grados, velocidad 4 nudos
Visibilidad: 10 km o más
Nubes: Cubierto a 2600 pies sobre el nivel del aeródromo
Temperatura: 17 °C
Rocío: 12 °C
Humedad_relativa: 72%
Presión: 1015 hPa
METAR del 22-05-2019 a las 06:00 UTC
METAR SCAR 220600Z 14004KT 9999 OVC026 17/12 Q1015
Viento: dirección 140 grados, velocidad 4 nudos
Visibilidad: 10 km o más
Nubes: Cubierto a 2600 pies sobre el nivel del aeródromo
Temperatura: 17 °C
Rocío: 12 °C
Humedad_relativa: 72%
Presión: 1015 hPa
METAR del 22-05-2019 a las 05:00 UTC
METAR SCAR 220500Z 16003KT 9999 OVC026 17/13 Q1016
Viento: dirección 160 grados, velocidad 3 nudos
Visibilidad: 10 km o más
Nubes: Cubierto a 2600 pies sobre el nivel del aeródromo
Temperatura: 17 °C
Rocío: 13 °C
Humedad_relativa: 77%
Presión: 1016 hPa
METAR del 22-05-2019 a las 05:00 UTC
METAR SCAR 220500Z 16003KT 9999 OVC026 17/13 Q1016
Viento: dirección 160 grados, velocidad 3 nudos
Visibilidad: 10 km o más
Nubes: Cubierto a 2600 pies sobre el nivel del aeródromo
Temperatura: 17 °C
Rocío: 13 °C
Humedad_relativa: 77%
Presión: 1016 hPa
METAR del 22-05-2019 a las 04:00 UTC
METAR SCAR 220400Z 17002KT 9999 OVC026 17/12 Q1016
Viento: dirección 170 grados, velocidad 2 nudos
Visibilidad: 10 km o más
Nubes: Cubierto a 2600 pies sobre el nivel del aeródromo
Temperatura: 17 °C
Rocío: 12 °C
Humedad_relativa: 72%
Presión: 1016 hPa
METAR del 22-05-2019 a las 03:00 UTC
METAR SCAR 220300Z 18004KT 9999 OVC026 18/13 Q1017
Viento: dirección 180 grados, velocidad 4 nudos
Visibilidad: 10 km o más
Nubes: Cubierto a 2600 pies sobre el nivel del aeródromo
Temperatura: 18 °C
Rocío: 13 °C
Humedad_relativa: 73%
Presión: 1017 hPa